Map

Track Data

SID SEASON NUMBER BASIN SUBBASIN NAME ISO_TIME NATURE LAT LON WMO_WIND WMO_PRES WMO_AGENCY TRACK_TYPE DIST2LAND LANDFALL IFLAG USA_AGENCY USA_ATCF_ID USA_LAT USA_LON USA_RECORD USA_STATUS USA_WIND USA_PRES USA_SSHS USA_R34_NE USA_R34_SE USA_R34_SW USA_R34_NW USA_R50_NE USA_R50_SE USA_R50_SW USA_R50_NW USA_R64_NE USA_R64_SE USA_R64_SW USA_R64_NW USA_POCI USA_ROCI USA_RMW USA_EYE TOKYO_LAT TOKYO_LON TOKYO_GRADE TOKYO_WIND TOKYO_PRES TOKYO_R50_DIR TOKYO_R50_LONG TOKYO_R50_SHORT TOKYO_R30_DIR TOKYO_R30_LONG TOKYO_R30_SHORT TOKYO_LAND CMA_LAT CMA_LON CMA_CAT CMA_WIND CMA_PRES HKO_LAT HKO_LON HKO_CAT HKO_WIND HKO_PRES NEWDELHI_LAT NEWDELHI_LON NEWDELHI_GRADE NEWDELHI_WIND NEWDELHI_PRES NEWDELHI_CI NEWDELHI_DP NEWDELHI_POCI REUNION_LAT REUNION_LON REUNION_TYPE REUNION_WIND REUNION_PRES REUNION_TNUM REUNION_CI REUNION_RMW REUNION_R34_NE REUNION_R34_SE REUNION_R34_SW REUNION_R34_NW REUNION_R50_NE REUNION_R50_SE REUNION_R50_SW REUNION_R50_NW REUNION_R64_NE REUNION_R64_SE REUNION_R64_SW REUNION_R64_NW BOM_LAT BOM_LON BOM_TYPE BOM_WIND BOM_PRES BOM_TNUM BOM_CI BOM_RMW BOM_R34_NE BOM_R34_SE BOM_R34_SW BOM_R34_NW BOM_R50_NE BOM_R50_SE BOM_R50_SW BOM_R50_NW BOM_R64_NE BOM_R64_SE BOM_R64_SW BOM_R64_NW BOM_ROCI BOM_POCI BOM_EYE BOM_POS_METHOD BOM_PRES_METHOD NADI_LAT NADI_LON NADI_CAT NADI_WIND NADI_PRES WELLINGTON_LAT WELLINGTON_LON WELLINGTON_WIND WELLINGTON_PRES DS824_LAT DS824_LON DS824_STAGE DS824_WIND DS824_PRES TD9636_LAT TD9636_LON TD9636_STAGE TD9636_WIND TD9636_PRES TD9635_LAT TD9635_LON TD9635_WIND TD9635_PRES TD9635_ROCI NEUMANN_LAT NEUMANN_LON NEUMANN_CLASS NEUMANN_WIND NEUMANN_PRES MLC_LAT MLC_LON MLC_CLASS MLC_WIND MLC_PRES USA_GUST BOM_GUST BOM_GUST_PER REUNION_GUST REUNION_GUST_PER USA_SEAHGT USA_SEARAD_NE USA_SEARAD_SE USA_SEARAD_SW USA_SEARAD_NW STORM_SPEED STORM_DIR
1958322N08093 1958 107 NI BB NOT_NAMED 1958-11-17 18:00:00 TS 7.50000 92.6000 main 357 351 O________O____ jtwc_io IO121958 7.50000 92.6000 -1 7.50000 92.6000 TC 2 155
1958322N08093 1958 107 NI BB NOT_NAMED 1958-11-17 21:00:00 TS 7.41995 92.6425 main 351 351 P________P____ IO121958 7.41995 92.6425 -1 7.41995 92.6425 TC 1 223
1958322N08093 1958 107 NI BB NOT_NAMED 1958-11-18 00:00:00 TS 7.40000 92.5000 main 360 360 O________O____ jtwc_io IO121958 7.40000 92.5000 -1 7.40000 92.5000 TC 25 6 276
1958322N08093 1958 107 NI BB NOT_NAMED 1958-11-18 03:00:00 TS 7.48002 92.0422 main 412 412 P________PO___ IO121958 7.47752 92.0475 -1 7.47752 92.0475 TC 25 7.50000 92.0000 1 11 280
1958322N08093 1958 107 NI BB NOT_NAMED 1958-11-18 06:00:00 TS 7.60042 91.3922 main 476 476 O________OP___ jtwc_io IO121958 7.60000 91.4000 -1 7.60000 91.4000 TC 25 7.60208 91.3608 1 13 279
1958322N08093 1958 107 NI BB NOT_NAMED 1958-11-18 09:00:00 TS 7.69267 90.7101 main 550 550 P________PP___ IO121958 7.68506 90.7074 -1 7.68506 90.7074 TC 25 7.71298 90.7173 1 14 279
1958322N08093 1958 107 NI BB NOT_NAMED 1958-11-18 12:00:00 TS 7.81413 90.0217 main 625 625 O________OP___ jtwc_io IO121958 7.80000 90.0000 -1 7.80000 90.0000 TC 25 7.84239 90.0651 1 13 283
1958322N08093 1958 107 NI BB NOT_NAMED 1958-11-18 15:00:00 TS 7.98488 89.3950 main 695 695 P________PO___ IO121958 7.97731 89.3924 -1 7.97731 89.3924 TC 25 8.00000 89.4000 1 13 287
1958322N08093 1958 107 NI BB NOT_NAMED 1958-11-18 18:00:00 TS 8.19742 88.7745 main 764 700 O________OP___ jtwc_io IO121958 8.20000 88.8000 -1 8.20000 88.8000 TC 25 8.19226 88.7234 1 14 290
1958322N08093 1958 107 NI BB NOT_NAMED 1958-11-18 21:00:00 TS 8.43759 88.1101 main 700 639 P________PP___ IO121958 8.45003 88.1350 -1 8.45003 88.1350 TC 25 8.41270 88.0603 1 14 291
1958322N08093 1958 107 NI BB NOT_NAMED 1958-11-19 00:00:00 TS 8.68391 87.4807 main 639 590 O________OP___ jtwc_io IO121958 8.70000 87.5000 -1 8.70000 87.5000 TC 25 8.65174 87.4421 1 13 292
1958322N08093 1958 107 NI BB NOT_NAMED 1958-11-19 03:00:00 TS 8.89994 86.9366 main 580 544 P________PO___ IO121958 8.89991 86.9549 -1 8.89991 86.9549 TC 25 8.90000 86.9000 1 11 294
1958322N08093 1958 107 NI BB NOT_NAMED 1958-11-19 06:00:00 TS 9.10999 86.4929 main 544 510 O________OP___ jtwc_io IO121958 9.10000 86.5000 -1 9.10000 86.5000 TC 25 9.12997 86.4786 1 9 299
1958322N08093 1958 107 NI BB NOT_NAMED 1958-11-19 09:00:00 TS 9.34631 86.1289 main 510 493 P________PP___ IO121958 9.33489 86.1274 -1 9.33489 86.1274 TC 25 9.36916 86.1319 1 8 306
1958322N08093 1958 107 NI BB NOT_NAMED 1958-11-19 12:00:00 TS 9.60794 85.8064 main 493 473 O________OP___ jtwc_io IO121958 9.60000 85.8000 -1 9.60000 85.8000 TC 25 9.62381 85.8192 1 8 310
1958322N08093 1958 107 NI BB NOT_NAMED 1958-11-19 15:00:00 TS 9.88996 85.4716 main 478 453 P________PO___ IO121958 9.88494 85.4574 -1 9.88494 85.4574 TC 25 9.90000 85.5000 1 9 311
1958322N08093 1958 107 NI BB NOT_NAMED 1958-11-19 18:00:00 TS 10.2025 85.1061 main 453 431 O________OP___ jtwc_io IO121958 10.2000 85.1000 -1 10.2000 85.1000 TC 25 10.2074 85.1184 1 10 311
1958322N08093 1958 107 NI BB NOT_NAMED 1958-11-19 21:00:00 TS 10.5449 84.7125 main 431 419 P________PP___ IO121958 10.5500 84.7075 -1 10.5500 84.7075 TC 30 10.5349 84.7224 1 10 311
1958322N08093 1958 107 NI BB NOT_NAMED 1958-11-20 00:00:00 TS 10.8900 84.3051 main 419 400 O________OP___ jtwc_io IO121958 10.9000 84.3000 -1 10.9000 84.3000 TC 35 10.8699 84.3152 1 10 310
1958322N08093 1958 107 NI BB NOT_NAMED 1958-11-20 03:00:00 TS 11.2049 83.9049 main 400 376 P________PO___ IO121958 11.2074 83.9074 -1 11.2074 83.9074 TC 35 11.2000 83.9000 2 10 308
1958322N08093 1958 107 NI BB NOT_NAMED 1958-11-20 06:00:00 TS 11.5037 83.4967 main 376 325 O________OP___ jtwc_io IO121958 11.5000 83.5000 -1 11.5000 83.5000 TC 35 11.5110 83.4900 2 10 306
1958322N08093 1958 107 NI BB NOT_NAMED 1958-11-20 09:00:00 TS 11.8049 83.0623 main 325 264 P________PP___ IO121958 11.8000 83.0574 -1 11.8000 83.0574 TC 35 11.8147 83.0721 2 11 305
1958322N08093 1958 107 NI BB NOT_NAMED 1958-11-20 12:00:00 TS 12.1037 82.6144 main 264 217 O________OP___ jtwc_io IO121958 12.1000 82.6000 -1 12.1000 82.6000 TC 35 12.1110 82.6431 2 11 304
1958322N08093 1958 107 NI BB NOT_NAMED 1958-11-20 15:00:00 TS 12.3999 82.1716 main 217 162 P________PO___ IO121958 12.3999 82.1574 -1 12.3999 82.1574 TC 35 12.4000 82.2000 3 11 304
1958322N08093 1958 107 NI BB NOT_NAMED 1958-11-20 18:00:00 TS 12.7077 81.7024 main 162 103 O________OP___ jtwc_io IO121958 12.7000 81.7000 -1 12.7000 81.7000 TC 35 12.7230 81.7073 3 11 303
1958322N08093 1958 107 NI BB NOT_NAMED 1958-11-20 21:00:00 TS 13.0260 81.1920 main 103 43 P________PP___ IO121958 13.0226 81.1851 -1 13.0226 81.1851 TC 30 13.0329 81.2057 3 11 301
1958322N08093 1958 107 NI BB NOT_NAMED 1958-11-21 00:00:00 TS 13.3004 80.7087 main 43 0 O________OP___ jtwc_io IO121958 13.3000 80.7000 -1 13.3000 80.7000 TC 25 13.3012 80.7261 3 10 299
1958322N08093 1958 107 NI BB NOT_NAMED 1958-11-21 03:00:00 TS 13.4966 80.3083 main 0 0 P________PO___ IO121958 13.4949 80.3124 -1 13.4949 80.3124 TC 25 13.5000 80.3000 1 8 293
1958322N08093 1958 107 NI BB NOT_NAMED 1958-11-21 06:00:00 TS 13.6015 79.9903 main 0 0 O________OP___ jtwc_io IO121958 13.6000 80.0000 -1 13.6000 80.0000 TC 25 13.6045 79.9710 1 6 283
1958322N08093 1958 107 NI BB NOT_NAMED 1958-11-21 09:00:00 TS 13.6280 79.7272 main 0 0 P________PP___ IO121958 13.6224 79.7424 -1 13.6224 79.7424 TC 25 13.6393 79.6968 1 5 271
1958322N08093 1958 107 NI BB NOT_NAMED 1958-11-21 12:00:00 TS 13.6099 79.4831 main 0 0 O________OP___ jtwc_io IO121958 13.6000 79.5000 -1 13.6000 79.5000 TC 25 13.6296 79.4493 1 5 267
1958322N08093 1958 107 NI BB NOT_NAMED 1958-11-21 15:00:00 TS 13.6000 79.2050 main 0 0 P________PO___ IO121958 13.6000 79.2075 -1 13.6000 79.2075 TC 25 13.6000 79.2000 1 6 269
1958322N08093 1958 107 NI BB NOT_NAMED 1958-11-21 18:00:00 TS 13.6045 78.9133 main 0 0 O________OP___ jtwc_io IO121958 13.6000 78.9000 -1 13.6000 78.9000 TC 25 13.6134 78.9399 1 6 271
1958322N08093 1958 107 NI BB NOT_NAMED 1958-11-21 21:00:00 TS 13.6131 78.6277 main 0 0 P________PP___ IO121958 13.6149 78.6076 -1 13.6149 78.6076 TC 25 13.6094 78.6679 1 6 269
1958322N08093 1958 107 NI BB NOT_NAMED 1958-11-22 00:00:00 TS 13.5919 78.3206 main 0 0 O________OP___ jtwc_io IO121958 13.6000 78.3000 -1 13.6000 78.3000 TC 25 13.5757 78.3619 1 6 261
1958322N08093 1958 107 NI AS NOT_NAMED 1958-11-22 03:00:00 TS 13.5199 77.9917 main 0 0 P________PO___ IO121958 13.5298 77.9876 -1 13.5298 77.9876 TC 25 13.5000 78.0000 1 7 254
1958322N08093 1958 107 NI AS NOT_NAMED 1958-11-22 06:00:00 TS 13.3853 77.5884 main 0 0 O________OP___ jtwc_io IO121958 13.4000 77.6000 -1 13.4000 77.6000 TC 25 13.3560 77.5651 1 9 250
1958322N08093 1958 107 NI AS NOT_NAMED 1958-11-22 09:00:00 TS 13.1959 77.0780 main 0 0 P________PP___ IO121958 13.2075 77.0799 -1 13.2075 77.0799 TC 25 13.1725 77.0743 1 11 249
1958322N08093 1958 107 NI AS NOT_NAMED 1958-11-22 12:00:00 TS 12.9926 76.5155 main 0 0 O________OP___ jtwc_io IO121958 13.0000 76.5000 -1 13.0000 76.5000 TC 25 12.9778 76.5464 1 11 251
1958322N08093 1958 107 NI AS NOT_NAMED 1958-11-22 15:00:00 TS 12.8282 75.9717 main 0 0 P________PO___ IO121958 12.8423 75.9576 -1 12.8423 75.9576 TC 25 12.8000 76.0000 1 11 254
1958322N08093 1958 107 NI AS NOT_NAMED 1958-11-22 18:00:00 TS 12.6835 75.4038 main 0 0 O________OP___ jtwc_io IO121958 12.7000 75.4000 -1 12.7000 75.4000 TC 25 12.6504 75.4116 1 12 255
1958322N08093 1958 107 NI AS NOT_NAMED 1958-11-22 21:00:00 TS 12.5270 74.7857 main 15 15 P________PP___ IO121958 12.5276 74.7699 -1 12.5276 74.7699 TC 25 12.5257 74.8174 1 12 257
1958322N08093 1958 107 NI AS NOT_NAMED 1958-11-23 00:00:00 TS 12.4127 74.2215 main 79 79 O________OP___ jtwc_io IO121958 12.4000 74.2000 -1 12.4000 74.2000 TC 25 12.4380 74.2646 1 10 261
1958322N08093 1958 107 NI AS NOT_NAMED 1958-11-23 03:00:00 TS 12.3749 73.7934 main 117 117 P________PO___ IO121958 12.3623 73.7901 -1 12.3623 73.7901 TC 25 12.4000 73.8000 1 7 269
1958322N08093 1958 107 NI AS NOT_NAMED 1958-11-23 06:00:00 TS 12.4053 73.4953 main 148 148 O________OP___ jtwc_io IO121958 12.4000 73.5000 -1 12.4000 73.5000 TC 25 12.4159 73.4859 1 5 282
1958322N08093 1958 107 NI AS NOT_NAMED 1958-11-23 09:00:00 TS 12.4838 73.2768 main 166 166 P________PP___ IO121958 12.4849 73.2850 -1 12.4849 73.2850 TC 25 12.4817 73.2603 1 4 296
1958322N08093 1958 107 NI AS NOT_NAMED 1958-11-23 12:00:00 TS 12.5939 73.0932 main 185 185 O________OP___ jtwc_io IO121958 12.6000 73.1000 -1 12.6000 73.1000 TC 25 12.5817 73.0795 1 4 298
1958322N08093 1958 107 NI AS NOT_NAMED 1958-11-23 15:00:00 TS 12.6950 72.8717 main 206 206 P________PO___ IO121958 12.6925 72.8575 -1 12.6925 72.8575 TC 25 12.7000 72.9000 1 5 294
1958322N08093 1958 107 NI AS NOT_NAMED 1958-11-23 18:00:00 TS 12.8063 72.6123 main 234 234 O________OP___ jtwc_io IO121958 12.8000 72.6000 -1 12.8000 72.6000 TC 25 12.8188 72.6370 1 6 296
1958322N08093 1958 107 NI AS NOT_NAMED 1958-11-23 21:00:00 TS 12.9501 72.3468 main 262 262 P________PP___ IO121958 12.9500 72.3350 -1 12.9500 72.3350 TC 25 12.9501 72.3702 1 6 300
1958322N08093 1958 107 NI AS NOT_NAMED 1958-11-24 00:00:00 TS 13.0938 72.1061 main 282 282 O________OP___ jtwc_io IO121958 13.1000 72.1000 -1 13.1000 72.1000 TC 25 13.0813 72.1183 1 5 302
1958322N08093 1958 107 NI AS NOT_NAMED 1958-11-24 03:00:00 TS 13.2100 71.9233 main 296 290 P________PO___ IO121958 13.2150 71.9350 -1 13.2150 71.9350 TC 25 13.2000 71.9000 1 4 302
1958322N08093 1958 107 NI AS NOT_NAMED 1958-11-24 06:00:00 TS 13.2951 71.7796 main 299 299 O________OP___ jtwc_io IO121958 13.3000 71.8000 -1 13.3000 71.8000 TC 25 13.2852 71.7389 1 3 297
1958322N08093 1958 107 NI AS NOT_NAMED 1958-11-24 09:00:00 TS 13.3524 71.6324 main 311 311 P________PP___ IO121958 13.3500 71.6425 -1 13.3500 71.6425 TC 25 13.3573 71.6123 1 3 293
1958322N08093 1958 107 NI AS NOT_NAMED 1958-11-24 12:00:00 TS 13.4086 71.5015 main 321 321 O________OP___ jtwc_io IO121958 13.4000 71.5000 -1 13.4000 71.5000 TC 25 13.4258 71.5046 1 3 302
1958322N08093 1958 107 NI AS NOT_NAMED 1958-11-24 15:00:00 TS 13.4950 71.4000 main 323 323 P________PO___ IO121958 13.4925 71.4000 -1 13.4925 71.4000 TC 25 13.5000 71.4000 1 3 315
1958322N08093 1958 107 NI AS NOT_NAMED 1958-11-24 18:00:00 TS 13.5948 71.3119 main 326 326 O________OP___ jtwc_io IO121958 13.6000 71.3000 -1 13.6000 71.3000 TC 25 13.5843 71.3356 1 3 315
1958322N08093 1958 107 NI AS NOT_NAMED 1958-11-24 21:00:00 TS 13.6923 71.1973 main 330 330 P________PP___ IO121958 13.7000 71.1650 -1 13.7000 71.1650 TC 25 13.6768 71.2620 1 3 308
1958322N08093 1958 107 NI AS NOT_NAMED 1958-11-25 00:00:00 TS 13.7936 71.0441 main 344 340 O________OP___ jtwc_io IO121958 13.8000 71.0000 -1 13.8000 71.0000 TC 25 13.7809 71.1324 1 4 303
1958322N08093 1958 107 NI AS NOT_NAMED 1958-11-25 03:00:00 TS 13.8949 70.8733 main 349 349 P________PO___ IO121958 13.8923 70.8599 -1 13.8923 70.8599 TC 25 13.9000 70.9000 1 5 296
1958322N08093 1958 107 NI AS NOT_NAMED 1958-11-25 06:00:00 TS 14.0147 70.5707 main 376 376 O________OP___ jtwc_io IO121958 14.0000 70.6000 -1 14.0000 70.6000 TC 25 14.0441 70.5121 1 8 289
1958322N08093 1958 107 NI AS NOT_NAMED 1958-11-25 09:00:00 TS 14.1619 70.0751 main 417 417 P________PP___ IO121958 14.1427 70.1025 -1 14.1427 70.1025 TC 25 14.2005 70.0203 1 11 286
1958322N08093 1958 107 NI AS NOT_NAMED 1958-11-25 12:00:00 TS 14.3189 69.4894 main 474 474 O________OP___ jtwc_io IO121958 14.3000 69.5000 -1 14.3000 69.5000 TC 25 14.3566 69.4683 1 12 286
1958322N08093 1958 107 NI AS NOT_NAMED 1958-11-25 15:00:00 TS 14.4716 68.9333 main 522 522 P________PO___ IO121958 14.4574 68.9500 -1 14.4574 68.9500 TC 25 14.5000 68.9000 1 11 284
1958322N08093 1958 107 NI AS NOT_NAMED 1958-11-25 18:00:00 TS 14.5940 68.3871 main 566 566 O________OP___ jtwc_io IO121958 14.6000 68.4000 -1 14.6000 68.4000 TC 25 14.5819 68.3612 1 11 281
1958322N08093 1958 107 NI AS NOT_NAMED 1958-11-25 21:00:00 TS 14.6850 67.8346 main 622 622 P________PP___ IO121958 14.6999 67.8424 -1 14.6999 67.8424 TC 25 14.6551 67.8190 1 11 280
1958322N08093 1958 107 NI AS NOT_NAMED 1958-11-26 00:00:00 TS 14.7836 67.2975 main 670 670 O________OP___ jtwc_io IO121958 14.8000 67.3000 -1 14.8000 67.3000 TC 25 14.7507 67.2924 1 10 283
1958322N08093 1958 107 NI AS NOT_NAMED 1958-11-26 03:00:00 TS 14.9133 66.7849 main 718 718 P________PO___ IO121958 14.9199 66.7774 -1 14.9199 66.7774 TC 25 14.9000 66.8000 1 10 289
1958322N08093 1958 107 NI AS NOT_NAMED 1958-11-26 06:00:00 TS 15.1047 66.3053 main 765 765 O________OP___ jtwc_io IO121958 15.1000 66.3000 -1 15.1000 66.3000 TC 25 15.1140 66.3157 1 10 297
1958322N08093 1958 107 NI AS NOT_NAMED 1958-11-26 09:00:00 TS 15.3658 65.8660 main 782 779 P________PP___ IO121958 15.3549 65.8625 -1 15.3549 65.8625 TC 25 15.3875 65.8731 1 10 308
1958322N08093 1958 107 NI AS NOT_NAMED 1958-11-26 12:00:00 TS 15.7057 65.4980 main 781 768 O________OP___ jtwc_io IO121958 15.7000 65.5000 -1 15.7000 65.5000 TC 25 15.7172 65.4939 1 10 320
1958322N08093 1958 107 NI AS NOT_NAMED 1958-11-26 15:00:00 TS 16.1133 65.2033 main 768 743 P________PO___ IO121958 16.1199 65.2050 -1 16.1199 65.2050 TC 30 16.1000 65.2000 1 10 331
1958322N08093 1958 107 NI AS NOT_NAMED 1958-11-26 18:00:00 TS 16.5815 64.9977 main 743 711 O________OP___ jtwc_io IO121958 16.6000 65.0000 -1 16.6000 65.0000 TC 35 16.5445 64.9931 1 10 342
1958322N08093 1958 107 NI AS NOT_NAMED 1958-11-26 21:00:00 TS 17.0831 64.8657 main 711 678 P________PP___ IO121958 17.1075 64.8624 -1 17.1075 64.8624 TC 50 17.0345 64.8721 1 10 349
1958322N08093 1958 107 NI AS NOT_NAMED 1958-11-27 00:00:00 TS 17.5774 64.8050 main 678 643 O________OP___ jtwc_io IO121958 17.6000 64.8000 -1 17.6000 64.8000 TC 65 17.5322 64.8151 1 9 356
1958322N08093 1958 107 NI AS NOT_NAMED 1958-11-27 03:00:00 TS 18.0150 64.7899 main 643 610 P________PO___ IO121958 18.0225 64.7849 -1 18.0225 64.7849 TC 65 18.0000 64.8000 4 8 0
1958322N08093 1958 107 NI AS NOT_NAMED 1958-11-27 06:00:00 TS 18.3980 64.7922 main 610 586 O________OP___ jtwc_io IO121958 18.4000 64.8000 -1 18.4000 64.8000 TC 65 18.3940 64.7766 4 8 0
1958322N08093 1958 107 NI AS NOT_NAMED 1958-11-27 09:00:00 TS 18.7608 64.7867 main 579 556 P________PP___ IO121958 18.7650 64.7851 -1 18.7650 64.7851 TC 65 18.7524 64.7898 4 7 0
1958322N08093 1958 107 NI AS NOT_NAMED 1958-11-27 12:00:00 TS 19.0949 64.8110 main 556 527 O________OP___ jtwc_io IO121958 19.1000 64.8000 -1 19.1000 64.8000 TC 65 19.0846 64.8330 4 7 9
1958322N08093 1958 107 NI AS NOT_NAMED 1958-11-27 15:00:00 TS 19.4000 64.8900 main 527 498 P________PO___ IO121958 19.4000 64.8850 -1 19.4000 64.8850 TC 50 19.4000 64.9000 4 6 15
1958322N08093 1958 107 NI AS NOT_NAMED 1958-11-27 18:00:00 TS 19.7156 64.9914 main 498 464 O________OP___ jtwc_io IO121958 19.7000 65.0000 -1 19.7000 65.0000 TC 35 19.7469 64.9742 4 7 16
1958322N08093 1958 107 NI AS NOT_NAMED 1958-11-27 21:00:00 TS 20.0733 65.0899 main 464 438 P________PP___ IO121958 20.0725 65.1000 -1 20.0725 65.1000 TC 30 20.0750 65.0697 4 7 16
1958322N08093 1958 107 NI AS NOT_NAMED 1958-11-28 00:00:00 TS 20.3885 65.1935 main 438 418 O________OP___ jtwc_io IO121958 20.4000 65.2000 -1 20.4000 65.2000 TC 25 20.3656 65.1804 4 6 21
1958322N08093 1958 107 NI AS NOT_NAMED 1958-11-28 03:00:00 TS 20.5917 65.2951 main 418 403 P________PO___ IO121958 20.5875 65.2926 -1 20.5875 65.2926 TC 25 20.6000 65.3000 1 4 31
1958322N08093 1958 107 NI AS NOT_NAMED 1958-11-28 06:00:00 TS 20.7178 65.4060 main 403 389 O________OP___ jtwc_io IO121958 20.7000 65.4000 -1 20.7000 65.4000 TC 25 20.7534 65.4181 1 3 46
1958322N08093 1958 107 NI AS NOT_NAMED 1958-11-28 09:00:00 TS 20.8225 65.5476 main 389 365 P________PP___ IO121958 20.8075 65.5500 -1 20.8075 65.5500 TC 25 20.8525 65.5428 1 3 54
1958322N08093 1958 107 NI AS NOT_NAMED 1958-11-28 12:00:00 TS 20.9084 65.6904 main 365 351 O________OP___ jtwc_io IO121958 20.9000 65.7000 -1 20.9000 65.7000 TC 25 20.9253 65.6712 1 3 54
1958322N08093 1958 107 NI AS NOT_NAMED 1958-11-28 15:00:00 TS 20.9950 65.8000 main 351 337 P________PO___ IO121958 20.9925 65.8001 -1 20.9925 65.8001 TC 25 21.0000 65.8000 1 3 47
1958322N08093 1958 107 NI AS NOT_NAMED 1958-11-28 18:00:00 TS 21.0995 65.9108 main 337 323 O________OP___ jtwc_io IO121958 21.1000 65.9000 -1 21.1000 65.9000 TC 25 21.0988 65.9270 1 3 44
1958322N08093 1958 107 NI AS NOT_NAMED 1958-11-28 21:00:00 TS 21.2315 66.0437 main 323 296 P________PP___ IO121958 21.2401 66.0374 -1 21.2401 66.0374 TC 25 21.2201 66.0522 1 4 43
1958322N08093 1958 107 NI AS NOT_NAMED 1958-11-29 00:00:00 TS 21.3782 66.1881 main 296 282 O________OP___ jtwc_io IO121958 21.4000 66.2000 -1 21.4000 66.2000 TC 25 21.3563 66.1763 1 4 41
1958322N08093 1958 107 NI AS NOT_NAMED 1958-11-29 03:00:00 NR 21.5000 66.3000 main 282 __________O___ IO121958 -1 TC 21.5000 66.3000 1 3 40

About IBTrACS Database

This database is a web-friendly format of International Best Track Archive for Climate Stewardship (IBTrACS), a global best track data archive curated by NOAA dating back to 1842.

Updated: 2021-10-25